createdAt,value
2023-03-01T00:01:39.622Z,24.90
2023-03-01T00:04:06.696Z,26.40
2023-03-01T00:06:33.919Z,24.77
2023-03-01T00:09:01.015Z,27.48
2023-03-01T00:11:30.491Z,25.90
2023-03-01T00:14:00.377Z,27.55
2023-03-01T00:16:34.747Z,32.75
2023-03-01T00:19:01.971Z,29.95
2023-03-01T00:21:29.603Z,27.75
2023-03-01T00:23:57.063Z,31.63
2023-03-01T00:26:25.469Z,29.17
2023-03-01T00:28:53.096Z,30.02
2023-03-01T00:31:25.661Z,30.85
2023-03-01T00:34:00.368Z,24.58
2023-03-01T00:36:32.922Z,30.30
2023-03-01T00:39:00.433Z,31.42
2023-03-01T00:41:28.358Z,26.85
2023-03-01T00:43:56.145Z,27.63
2023-03-01T00:46:28.264Z,25.02
2023-03-01T00:48:55.733Z,25.30
2023-03-01T00:51:25.391Z,26.48
2023-03-01T00:53:54.121Z,30.90
2023-03-01T00:56:21.575Z,24.83
2023-03-01T00:58:49.445Z,27.70
2023-03-01T01:01:19.856Z,28.05
2023-03-01T01:03:53.743Z,28.52
2023-03-01T01:06:22.959Z,29.30
2023-03-01T01:08:51.127Z,28.90
2023-03-01T01:11:18.806Z,29.08
2023-03-01T01:13:47.697Z,28.52
2023-03-01T01:16:16.328Z,31.60
2023-03-01T01:18:43.865Z,29.58
2023-03-01T01:21:13.356Z,27.25
2023-03-01T01:23:42.400Z,24.73
2023-03-01T01:26:12.186Z,25.98
2023-03-01T01:28:39.471Z,31.08
2023-03-01T01:31:07.052Z,29.55
2023-03-01T01:33:35.210Z,27.40
2023-03-01T01:36:02.336Z,31.58
2023-03-01T01:38:29.313Z,27.65
2023-03-01T01:40:56.447Z,31.83
2023-03-01T01:43:29.806Z,24.85
2023-03-01T01:46:01.144Z,29.15
2023-03-01T01:48:41.439Z,28.08
2023-03-01T01:51:20.847Z,26.73
2023-03-01T01:53:52.405Z,29.38
2023-03-01T01:56:21.188Z,26.20
2023-03-01T01:58:49.137Z,29.02
2023-03-01T02:01:16.177Z,30.92
2023-03-01T02:03:45.968Z,24.83
2023-03-01T02:06:34.723Z,25.15
2023-03-01T02:09:06.068Z,29.60
2023-03-01T02:11:34.724Z,25.98
2023-03-01T02:14:01.824Z,29.23
2023-03-01T02:16:30.524Z,27.98
2023-03-01T02:18:58.885Z,28.45
2023-03-01T02:21:48.671Z,31.25
2023-03-01T02:24:39.524Z,24.17
2023-03-01T02:27:07.317Z,26.13
2023-03-01T02:29:34.580Z,22.00
2023-03-01T02:32:05.001Z,28.33
2023-03-01T02:34:33.619Z,32.20
2023-03-01T02:37:08.316Z,29.70
2023-03-01T02:39:47.634Z,31.90
2023-03-01T02:42:21.396Z,21.15
2023-03-01T02:44:50.627Z,29.20
2023-03-01T02:47:17.619Z,30.55
2023-03-01T02:49:44.605Z,26.45
2023-03-01T02:52:20.924Z,31.23
2023-03-01T02:54:53.314Z,30.55
2023-03-01T02:57:23.600Z,29.40
2023-03-01T03:02:23.189Z,24.95
2023-03-01T03:04:50.243Z,30.50
2023-03-01T03:07:49.276Z,31.33
2023-03-01T03:10:28.645Z,33.35
2023-03-01T03:13:04.925Z,30.67
2023-03-01T03:15:32.233Z,36.53
2023-03-01T03:18:00.528Z,33.20
2023-03-01T03:20:29.262Z,28.05
2023-03-01T03:22:59.457Z,31.48
2023-03-01T03:25:28.413Z,27.27
2023-03-01T03:27:59.781Z,29.88
2023-03-01T03:30:29.651Z,28.00
2023-03-01T03:32:58.075Z,26.23
2023-03-01T03:35:31.450Z,29.25
2023-03-01T03:38:04.182Z,30.50
2023-03-01T03:40:32.296Z,29.35
2023-03-01T03:42:59.353Z,32.33
2023-03-01T03:45:26.422Z,31.50
2023-03-01T03:47:53.496Z,31.55
2023-03-01T03:50:20.586Z,35.83
2023-03-01T03:52:48.294Z,33.50
2023-03-01T03:55:15.409Z,28.45
2023-03-01T03:57:42.628Z,31.40
2023-03-01T04:00:16.298Z,26.85
2023-03-01T04:02:44.110Z,31.17
2023-03-01T04:05:13.109Z,30.30
2023-03-01T04:07:40.434Z,30.27
2023-03-01T04:10:11.821Z,27.80
2023-03-01T04:12:38.821Z,34.60
2023-03-01T04:15:14.137Z,29.15
2023-03-01T04:17:45.862Z,30.80
2023-03-01T04:20:15.322Z,35.25
2023-03-01T04:25:09.414Z,34.03
2023-03-01T04:27:37.209Z,31.95
2023-03-01T04:30:05.227Z,37.70
2023-03-01T04:32:32.853Z,31.08
2023-03-01T04:35:00.131Z,33.22
2023-03-01T04:37:27.731Z,35.20
2023-03-01T04:39:54.725Z,35.15
2023-03-01T04:42:21.675Z,29.92
2023-03-01T04:44:48.903Z,31.25
2023-03-01T04:47:15.825Z,33.15
2023-03-01T04:49:42.780Z,32.17
2023-03-01T04:52:10.350Z,27.85
2023-03-01T04:54:37.540Z,33.10
2023-03-01T04:57:04.629Z,30.05
2023-03-01T04:59:31.533Z,31.80
2023-03-01T05:01:58.686Z,32.67
2023-03-01T05:04:26.175Z,35.35
2023-03-01T05:06:54.687Z,27.13
2023-03-01T05:09:21.691Z,37.93
2023-03-01T05:11:48.781Z,32.72
2023-03-01T05:14:15.825Z,33.92
2023-03-01T05:16:42.788Z,42.38
2023-03-01T05:19:16.354Z,35.47
2023-03-01T05:22:02.771Z,36.25
2023-03-01T05:24:32.128Z,31.55
2023-03-01T05:29:27.891Z,29.55
2023-03-01T05:32:03.655Z,32.08
2023-03-01T05:34:33.852Z,31.73
2023-03-01T05:37:00.933Z,28.27
2023-03-01T05:39:30.131Z,34.38
2023-03-01T05:41:59.224Z,30.70
2023-03-01T05:45:37.594Z,32.05
2023-03-01T05:48:06.157Z,34.50
2023-03-01T05:50:40.217Z,33.85
2023-03-01T05:53:10.231Z,27.85
2023-03-01T05:55:37.969Z,33.38
2023-03-01T05:58:08.004Z,35.92
2023-03-01T06:00:35.547Z,34.20
2023-03-01T06:03:03.084Z,35.33
2023-03-01T06:05:30.565Z,38.10
2023-03-01T06:08:01.653Z,32.30
2023-03-01T06:10:28.737Z,37.75
2023-03-01T06:12:56.105Z,33.50
2023-03-01T06:15:24.057Z,33.10
2023-03-01T06:18:48.292Z,33.70
2023-03-01T06:21:15.375Z,32.75
2023-03-01T06:23:42.319Z,33.63
2023-03-01T06:26:09.843Z,34.35
2023-03-01T06:28:37.267Z,32.78
2023-03-01T06:31:04.674Z,33.00
2023-03-01T06:33:31.658Z,35.25
2023-03-01T06:37:06.227Z,27.70
2023-03-01T06:39:33.657Z,32.13
2023-03-01T06:42:01.233Z,33.35
2023-03-01T06:44:35.318Z,31.30
2023-03-01T06:47:02.325Z,36.35
2023-03-01T06:49:29.377Z,28.98
2023-03-01T06:51:56.241Z,34.47
2023-03-01T06:54:23.453Z,34.88
2023-03-01T06:56:51.135Z,32.33
2023-03-01T06:59:18.789Z,34.70
2023-03-01T07:01:45.944Z,29.30
2023-03-01T07:04:14.430Z,35.20
2023-03-01T07:06:41.665Z,34.10
2023-03-01T07:09:08.653Z,34.20
2023-03-01T07:11:35.611Z,33.78
2023-03-01T07:14:02.683Z,37.22
2023-03-01T07:16:29.837Z,32.28
2023-03-01T07:18:58.253Z,31.70
2023-03-01T07:21:26.641Z,32.50
2023-03-01T07:23:53.609Z,31.42
2023-03-01T07:26:20.636Z,30.92
2023-03-01T07:28:47.594Z,31.63
2023-03-01T07:31:14.913Z,31.00
2023-03-01T07:33:42.033Z,33.90
2023-03-01T07:36:10.279Z,33.60
2023-03-01T07:38:37.242Z,33.50
2023-03-01T07:41:04.925Z,33.90
2023-03-01T07:43:32.367Z,31.98
2023-03-01T07:46:01.608Z,34.60
2023-03-01T07:48:29.963Z,29.45
2023-03-01T07:51:00.705Z,31.35
2023-03-01T07:53:27.829Z,30.65
2023-03-01T07:56:06.997Z,32.60
2023-03-01T07:58:39.123Z,31.92
2023-03-01T08:01:08.221Z,30.25
2023-03-01T08:03:35.812Z,31.77
2023-03-01T08:06:04.181Z,32.13
2023-03-01T08:08:31.814Z,34.80
2023-03-01T08:11:00.653Z,32.05
2023-03-01T08:13:28.163Z,34.63
2023-03-01T08:15:55.366Z,30.70
2023-03-01T08:18:22.708Z,30.73
2023-03-01T08:20:49.689Z,34.25
2023-03-01T08:23:16.698Z,34.50
2023-03-01T08:25:43.712Z,32.70
2023-03-01T08:28:10.667Z,31.33
2023-03-01T08:30:37.709Z,33.25
2023-03-01T08:33:04.734Z,31.38
2023-03-01T08:35:31.854Z,35.28
2023-03-01T08:37:58.878Z,33.35
2023-03-01T08:40:25.931Z,32.80
2023-03-01T08:42:52.938Z,29.67
2023-03-01T08:45:19.902Z,33.03
2023-03-01T08:47:46.851Z,31.83
2023-03-01T08:50:13.897Z,29.92
2023-03-01T08:52:40.916Z,32.53
2023-03-01T08:55:08.830Z,36.00
2023-03-01T08:57:35.877Z,32.95
2023-03-01T09:00:04.472Z,33.22
2023-03-01T09:02:31.602Z,34.93
2023-03-01T09:04:58.592Z,30.25
2023-03-01T09:07:29.198Z,33.90
2023-03-01T09:09:56.496Z,32.53
2023-03-01T09:12:23.658Z,33.60
2023-03-01T09:14:50.624Z,33.75
2023-03-01T09:17:17.736Z,35.90
2023-03-01T09:19:44.746Z,29.00
2023-03-01T09:22:11.780Z,31.90
2023-03-01T09:24:38.815Z,33.35
2023-03-01T09:27:09.654Z,27.75
2023-03-01T09:29:37.759Z,30.85
2023-03-01T09:32:05.180Z,36.08
2023-03-01T09:34:32.448Z,32.13
2023-03-01T09:36:59.641Z,31.63
2023-03-01T09:39:26.627Z,34.20
2023-03-01T09:42:05.527Z,29.35
2023-03-01T09:44:46.884Z,28.58
2023-03-01T09:47:24.916Z,30.00
2023-03-01T09:50:19.584Z,28.98
2023-03-01T09:52:54.564Z,31.08
2023-03-01T09:55:32.846Z,29.65
2023-03-01T09:58:31.945Z,36.05
2023-03-01T10:01:20.934Z,31.27
2023-03-01T10:04:32.678Z,35.90
2023-03-01T10:07:02.646Z,24.33
2023-03-01T10:09:33.564Z,27.48
2023-03-01T10:12:04.117Z,28.30
2023-03-01T10:14:58.827Z,28.88
2023-03-01T10:17:39.843Z,29.25
2023-03-01T10:20:25.107Z,30.13
2023-03-01T10:22:53.667Z,29.13
2023-03-01T10:25:25.722Z,28.23
2023-03-01T10:28:06.338Z,29.42
2023-03-01T10:30:40.619Z,28.27
2023-03-01T10:33:20.317Z,26.70
2023-03-01T10:38:17.410Z,28.75
2023-03-01T10:41:07.795Z,26.73
2023-03-01T10:43:50.203Z,25.05
2023-03-01T10:46:33.943Z,26.80
2023-03-01T10:49:16.218Z,28.60
2023-03-01T10:51:45.651Z,28.35
2023-03-01T10:54:29.865Z,28.85
2023-03-01T10:57:06.383Z,24.75
2023-03-01T10:59:35.045Z,26.30
2023-03-01T11:02:23.512Z,28.60
2023-03-01T11:05:13.554Z,26.90
2023-03-01T11:08:11.357Z,26.47
2023-03-01T11:10:38.420Z,27.02
2023-03-01T11:13:16.134Z,30.80
2023-03-01T11:15:44.139Z,28.40
2023-03-01T11:18:26.763Z,28.20
2023-03-01T11:21:01.308Z,28.73
2023-03-01T11:23:30.376Z,32.65
2023-03-01T11:26:03.984Z,28.27
2023-03-01T11:28:31.483Z,26.50
2023-03-01T11:31:16.449Z,26.55
2023-03-01T11:34:25.110Z,26.65
2023-03-01T11:37:00.528Z,26.00
2023-03-01T11:39:27.404Z,26.60
2023-03-01T11:42:18.498Z,28.15
2023-03-01T11:44:50.880Z,29.92
2023-03-01T11:47:54.953Z,25.40
2023-03-01T11:50:28.152Z,27.65
2023-03-01T11:53:19.315Z,25.27
2023-03-01T11:56:00.238Z,30.50
2023-03-01T11:58:54.317Z,31.95
2023-03-01T12:01:35.779Z,26.45
2023-03-01T12:04:24.875Z,26.77
2023-03-01T12:07:01.892Z,26.25
2023-03-01T12:09:39.858Z,28.90
2023-03-01T12:12:11.230Z,26.27
2023-03-01T12:15:19.458Z,28.77
2023-03-01T12:17:56.929Z,25.30
2023-03-01T12:20:39.885Z,25.38
2023-03-01T12:23:30.169Z,27.10
2023-03-01T12:26:09.437Z,24.85
2023-03-01T12:28:36.365Z,29.45
2023-03-01T12:31:09.384Z,27.58
2023-03-01T12:33:54.764Z,26.88
2023-03-01T12:36:34.106Z,26.70
2023-03-01T12:39:33.052Z,23.70
2023-03-01T12:42:41.967Z,25.42
2023-03-01T12:45:45.501Z,28.20
2023-03-01T12:48:30.985Z,26.33
2023-03-01T12:51:04.240Z,24.58
2023-03-01T12:53:36.501Z,26.23
2023-03-01T12:56:12.969Z,27.60
2023-03-01T12:58:50.618Z,26.38
2023-03-01T13:01:18.374Z,27.60
2023-03-01T13:04:07.220Z,27.48
2023-03-01T13:06:46.372Z,24.73
2023-03-01T13:09:16.520Z,26.42
2023-03-01T13:11:44.360Z,26.50
2023-03-01T13:14:26.275Z,28.98
2023-03-01T13:16:54.826Z,29.42
2023-03-01T13:19:25.298Z,27.30
2023-03-01T13:21:57.302Z,27.40
2023-03-01T13:24:44.801Z,28.85
2023-03-01T13:27:30.392Z,28.17
2023-03-01T13:30:04.664Z,28.10
2023-03-01T13:32:43.548Z,26.92
2023-03-01T13:35:21.476Z,26.95
2023-03-01T13:37:48.770Z,26.63
2023-03-01T13:40:21.919Z,27.17
2023-03-01T13:43:05.194Z,26.70
2023-03-01T13:45:44.341Z,27.67
2023-03-01T13:48:25.223Z,28.17
2023-03-01T13:51:00.778Z,27.75
2023-03-01T13:53:31.870Z,26.25
2023-03-01T13:56:08.000Z,25.67
2023-03-01T13:58:50.045Z,28.02
2023-03-01T14:01:44.795Z,25.52
2023-03-01T14:04:26.660Z,28.35
2023-03-01T14:07:09.414Z,26.23
2023-03-01T14:09:43.786Z,24.20
2023-03-01T14:12:16.826Z,25.88
2023-03-01T14:14:46.797Z,22.20
2023-03-01T14:17:28.953Z,25.35
2023-03-01T14:19:59.473Z,24.30
2023-03-01T14:22:34.617Z,24.50
2023-03-01T14:25:16.239Z,26.83
2023-03-01T14:27:44.413Z,24.95
2023-03-01T14:30:16.960Z,20.73
2023-03-01T14:32:44.058Z,24.40
2023-03-01T14:35:29.228Z,24.25
2023-03-01T14:37:56.435Z,26.15
2023-03-01T14:40:33.307Z,21.38
2023-03-01T14:43:03.361Z,24.65
2023-03-01T14:45:34.503Z,27.63
2023-03-01T14:48:04.347Z,23.02
2023-03-01T14:50:33.885Z,22.50
2023-03-01T14:53:06.803Z,25.60
2023-03-01T14:55:37.960Z,25.33
2023-03-01T14:58:14.673Z,31.10
2023-03-01T15:00:52.010Z,24.00
2023-03-01T15:03:27.012Z,23.90
2023-03-01T15:05:54.806Z,24.30
2023-03-01T15:08:25.956Z,19.05
2023-03-01T15:11:05.202Z,24.25
2023-03-01T15:13:35.417Z,22.27
2023-03-01T15:16:35.218Z,21.23
2023-03-01T15:19:05.077Z,29.15
2023-03-01T15:21:37.857Z,26.75
2023-03-01T15:24:20.780Z,22.75
2023-03-01T15:26:58.640Z,24.08
2023-03-01T15:29:30.986Z,22.63
2023-03-01T15:32:22.793Z,22.73
2023-03-01T15:34:49.954Z,24.20
2023-03-01T15:37:48.614Z,22.80
2023-03-01T15:40:33.987Z,25.33
2023-03-01T15:43:02.902Z,25.65
2023-03-01T15:45:31.864Z,26.07
2023-03-01T15:48:19.805Z,25.85
2023-03-01T15:50:56.561Z,26.67
2023-03-01T15:53:23.563Z,28.05
2023-03-01T15:55:51.410Z,24.67
2023-03-01T15:58:23.522Z,27.30
2023-03-01T16:01:04.314Z,24.55
2023-03-01T16:03:31.432Z,21.60
2023-03-01T16:05:58.418Z,23.50
2023-03-01T16:08:25.391Z,25.08
2023-03-01T16:10:52.653Z,21.95
2023-03-01T16:13:20.399Z,24.92
2023-03-01T16:15:47.779Z,23.77
2023-03-01T16:18:14.970Z,27.92
2023-03-01T16:20:42.149Z,25.90
2023-03-01T16:23:12.315Z,28.27
2023-03-01T16:25:39.591Z,25.85
2023-03-01T16:28:10.255Z,21.85
2023-03-01T16:30:40.554Z,23.55
2023-03-01T16:33:24.532Z,25.33
2023-03-01T16:35:56.669Z,23.52
2023-03-01T16:38:23.717Z,21.90
2023-03-01T16:40:52.508Z,21.25
2023-03-01T16:43:19.472Z,16.27
2023-03-01T16:45:47.648Z,24.15
2023-03-01T16:48:15.192Z,24.88
2023-03-01T16:50:42.393Z,24.63
2023-03-01T16:53:09.537Z,23.42
2023-03-01T16:55:36.527Z,21.55
2023-03-01T16:58:03.670Z,26.52
2023-03-01T17:00:30.766Z,21.85
2023-03-01T17:02:57.886Z,20.73
2023-03-01T17:05:26.174Z,24.88
2023-03-01T17:07:55.824Z,25.67
2023-03-01T17:12:51.217Z,26.75
2023-03-01T17:15:18.353Z,23.25
2023-03-01T17:17:45.475Z,23.20
2023-03-01T17:20:12.940Z,23.35
2023-03-01T17:22:39.961Z,27.65
2023-03-01T17:25:10.290Z,21.98
2023-03-01T17:27:40.987Z,25.05
2023-03-01T17:30:10.420Z,25.48
2023-03-01T17:32:37.589Z,27.20
2023-03-01T17:35:05.083Z,24.35
2023-03-01T17:37:32.122Z,31.25
2023-03-01T17:39:59.234Z,27.55
2023-03-01T17:42:26.221Z,28.10
2023-03-01T17:44:53.173Z,30.35
2023-03-01T17:47:20.283Z,37.65
2023-03-01T17:49:47.261Z,34.40
2023-03-01T17:52:14.256Z,32.70
2023-03-01T17:54:41.338Z,34.03
2023-03-01T17:57:08.274Z,32.03
2023-03-01T17:59:38.707Z,32.38
2023-03-01T18:02:05.807Z,37.28
2023-03-01T18:04:32.809Z,28.23
2023-03-01T18:06:59.909Z,32.05
2023-03-01T18:09:30.648Z,33.88
2023-03-01T18:11:57.640Z,32.75
2023-03-01T18:14:26.000Z,37.03
2023-03-01T18:17:03.432Z,30.65
2023-03-01T18:19:30.502Z,30.35
2023-03-01T18:21:57.483Z,27.42
2023-03-01T18:24:24.562Z,30.55
2023-03-01T18:31:09.002Z,38.25
2023-03-01T18:33:35.925Z,30.33
2023-03-01T18:36:03.523Z,31.80
2023-03-01T18:38:30.907Z,35.50
2023-03-01T18:40:58.277Z,29.20
2023-03-01T18:43:29.372Z,28.73
2023-03-01T18:45:58.273Z,29.20
2023-03-01T18:48:26.146Z,30.52
2023-03-01T18:51:25.890Z,27.02
2023-03-01T18:53:53.812Z,30.10
2023-03-01T18:56:21.148Z,25.42
2023-03-01T18:58:48.222Z,25.65
2023-03-01T19:01:21.192Z,29.55
2023-03-01T19:03:48.996Z,31.73
2023-03-01T19:06:17.019Z,25.42
2023-03-01T19:08:44.622Z,25.92
2023-03-01T19:11:13.051Z,29.83
2023-03-01T19:13:40.998Z,37.40
2023-03-01T19:16:10.485Z,35.60
2023-03-01T19:18:41.194Z,29.65
2023-03-01T19:21:10.293Z,31.30
2023-03-01T19:23:38.532Z,23.98
2023-03-01T19:26:11.365Z,28.90
2023-03-01T19:28:39.798Z,28.33
2023-03-01T19:31:09.438Z,27.83
2023-03-01T19:36:04.488Z,28.95
2023-03-01T19:38:31.592Z,27.65
2023-03-01T19:42:02.831Z,31.83
2023-03-01T19:44:30.335Z,27.13
2023-03-01T19:46:58.314Z,32.53
2023-03-01T19:49:27.279Z,27.75
2023-03-01T19:51:54.847Z,32.58
2023-03-01T19:54:23.028Z,29.58
2023-03-01T19:56:51.574Z,31.98
2023-03-01T19:59:24.619Z,31.30
2023-03-01T20:01:57.618Z,35.53
2023-03-01T20:04:27.090Z,28.35
2023-03-01T20:06:54.030Z,32.25
2023-03-01T20:09:22.573Z,38.67
2023-03-01T20:11:50.707Z,40.33
2023-03-01T20:14:18.203Z,35.88
2023-03-01T20:16:45.233Z,38.30
2023-03-01T20:19:12.252Z,31.02
2023-03-01T20:21:39.427Z,30.88
2023-03-01T20:24:06.699Z,34.85
2023-03-01T20:26:34.021Z,35.72
2023-03-01T20:29:01.230Z,36.95
2023-03-01T20:31:29.893Z,33.97
2023-03-01T20:38:23.218Z,36.80
2023-03-01T20:40:50.235Z,29.58
2023-03-01T20:43:17.207Z,36.33
2023-03-01T20:45:44.720Z,35.75
2023-03-01T20:48:11.770Z,33.20
2023-03-01T20:50:42.091Z,34.85
2023-03-01T20:53:09.380Z,32.45
2023-03-01T20:55:36.408Z,32.20
2023-03-01T20:58:03.590Z,32.63
2023-03-01T21:00:30.609Z,36.13
2023-03-01T21:02:59.659Z,37.42
2023-03-01T21:05:27.110Z,34.58
2023-03-01T21:07:54.370Z,37.25
2023-03-01T21:10:21.474Z,33.10
2023-03-01T21:12:48.467Z,28.20
2023-03-01T21:15:28.311Z,36.08
2023-03-01T21:17:56.200Z,30.73
2023-03-01T21:20:23.347Z,33.53
2023-03-01T21:22:50.351Z,36.75
2023-03-01T21:25:17.327Z,30.13
2023-03-01T21:27:44.286Z,36.15
2023-03-01T21:30:12.086Z,33.42
2023-03-01T21:32:39.492Z,34.35
2023-03-01T21:35:07.298Z,33.08
2023-03-01T21:37:34.735Z,35.00
2023-03-01T21:40:02.283Z,38.67
2023-03-01T21:42:32.214Z,35.28
2023-03-01T21:44:59.646Z,40.63
2023-03-01T21:47:26.993Z,32.30
2023-03-01T21:49:54.480Z,38.55
2023-03-01T21:52:22.002Z,36.03
2023-03-01T21:54:51.963Z,33.33
2023-03-01T21:57:19.942Z,37.53
2023-03-01T21:59:47.436Z,32.72
2023-03-01T22:02:15.041Z,37.78
2023-03-01T22:04:42.492Z,43.78
2023-03-01T22:07:09.743Z,39.15
2023-03-01T22:09:36.810Z,42.42
2023-03-01T22:12:04.063Z,37.65
2023-03-01T22:14:32.616Z,33.97
2023-03-01T22:16:59.726Z,38.28
2023-03-01T22:19:28.670Z,35.20
2023-03-01T22:21:55.797Z,39.55
2023-03-01T22:24:25.158Z,34.33
2023-03-01T22:26:53.848Z,35.53
2023-03-01T22:29:24.566Z,30.80
2023-03-01T22:31:52.575Z,36.28
2023-03-01T22:34:20.114Z,34.33
2023-03-01T22:36:48.018Z,33.90
2023-03-01T22:39:16.911Z,36.20
2023-03-01T22:41:46.061Z,39.20
2023-03-01T22:44:23.607Z,37.85
2023-03-01T22:46:51.470Z,37.95
2023-03-01T22:49:19.121Z,33.97
2023-03-01T22:51:47.674Z,30.85
2023-03-01T22:54:15.586Z,31.10
2023-03-01T22:56:43.318Z,31.83
2023-03-01T22:59:14.118Z,34.55
2023-03-01T23:01:46.448Z,33.78
2023-03-01T23:04:14.700Z,33.47
2023-03-01T23:06:50.566Z,39.53
2023-03-01T23:09:30.914Z,38.33
2023-03-01T23:11:59.837Z,42.13
2023-03-01T23:14:29.705Z,31.17
2023-03-01T23:16:56.966Z,39.20
2023-03-01T23:19:24.077Z,39.60
2023-03-01T23:21:51.116Z,36.15
2023-03-01T23:24:20.324Z,39.25
2023-03-01T23:26:53.380Z,38.20
2023-03-01T23:29:21.844Z,32.03
2023-03-01T23:31:49.235Z,41.15
2023-03-01T23:34:16.254Z,36.88
2023-03-01T23:36:45.191Z,36.95
2023-03-01T23:39:13.580Z,35.63
2023-03-01T23:41:40.666Z,37.67
2023-03-01T23:44:08.133Z,40.90
2023-03-01T23:46:37.407Z,42.80
2023-03-01T23:49:04.785Z,36.58
2023-03-01T23:51:31.886Z,39.70
2023-03-01T23:54:02.478Z,36.10
2023-03-01T23:56:35.855Z,39.53
2023-03-01T23:59:15.242Z,39.05
